sensor_id;sensor_type;location;lat;lon;timestamp;pressure;altitude;pressure_sealevel;temperature;humidity
29247;BME280;16272;48.188;9.964;2023-05-07T00:01:26;95709.69;;;11.81;79.05
29247;BME280;16272;48.188;9.964;2023-05-07T00:03:51;95709.50;;;12.25;78.02
29247;BME280;16272;48.188;9.964;2023-05-07T00:06:16;95707.81;;;12.32;77.73
29247;BME280;16272;48.188;9.964;2023-05-07T00:08:42;95702.81;;;12.29;78.36
29247;BME280;16272;48.188;9.964;2023-05-07T00:11:07;95709.50;;;12.34;77.97
29247;BME280;16272;48.188;9.964;2023-05-07T00:13:33;95706.50;;;12.28;77.05
29247;BME280;16272;48.188;9.964;2023-05-07T00:16:04;95700.84;;;12.31;76.15
29247;BME280;16272;48.188;9.964;2023-05-07T00:18:29;95705.16;;;12.32;75.45
29247;BME280;16272;48.188;9.964;2023-05-07T00:20:55;95704.66;;;12.29;76.24
29247;BME280;16272;48.188;9.964;2023-05-07T00:23:21;95708.13;;;12.21;76.50
29247;BME280;16272;48.188;9.964;2023-05-07T00:25:47;95701.00;;;12.22;75.46
29247;BME280;16272;48.188;9.964;2023-05-07T00:28:12;95698.81;;;12.17;76.69
29247;BME280;16272;48.188;9.964;2023-05-07T00:30:37;95696.50;;;12.22;76.04
29247;BME280;16272;48.188;9.964;2023-05-07T00:33:03;95692.47;;;12.10;77.55
29247;BME280;16272;48.188;9.964;2023-05-07T00:35:28;95686.66;;;12.06;74.43
29247;BME280;16272;48.188;9.964;2023-05-07T00:37:54;95693.69;;;12.24;73.86
29247;BME280;16272;48.188;9.964;2023-05-07T00:40:20;95694.84;;;12.38;73.79
29247;BME280;16272;48.188;9.964;2023-05-07T00:42:45;95695.13;;;12.02;76.17
29247;BME280;16272;48.188;9.964;2023-05-07T00:45:15;95690.09;;;11.90;77.75
29247;BME280;16272;48.188;9.964;2023-05-07T00:47:41;95701.50;;;12.17;74.68
29247;BME280;16272;48.188;9.964;2023-05-07T00:50:07;95698.81;;;12.17;74.28
29247;BME280;16272;48.188;9.964;2023-05-07T00:52:33;95698.50;;;12.12;74.57
29247;BME280;16272;48.188;9.964;2023-05-07T00:55:04;95693.78;;;11.98;76.21
29247;BME280;16272;48.188;9.964;2023-05-07T00:57:33;95694.47;;;12.00;75.95
29247;BME280;16272;48.188;9.964;2023-05-07T01:00:01;95683.78;;;11.91;75.46
29247;BME280;16272;48.188;9.964;2023-05-07T01:02:27;95687.56;;;11.72;77.04
29247;BME280;16272;48.188;9.964;2023-05-07T01:04:52;95685.41;;;11.84;75.51
29247;BME280;16272;48.188;9.964;2023-05-07T01:07:18;95680.66;;;11.53;77.00
29247;BME280;16272;48.188;9.964;2023-05-07T01:09:43;95683.84;;;11.22;79.17
29247;BME280;16272;48.188;9.964;2023-05-07T01:12:09;95692.47;;;11.25;78.81
29247;BME280;16272;48.188;9.964;2023-05-07T01:14:35;95679.88;;;11.27;77.81
29247;BME280;16272;48.188;9.964;2023-05-07T01:17:00;95683.00;;;11.22;78.43
29247;BME280;16272;48.188;9.964;2023-05-07T01:19:26;95684.28;;;11.52;76.98
29247;BME280;16272;48.188;9.964;2023-05-07T01:22:01;95686.56;;;11.39;76.99
29247;BME280;16272;48.188;9.964;2023-05-07T01:24:27;95683.91;;;11.39;77.56
29247;BME280;16272;48.188;9.964;2023-05-07T01:26:52;95685.28;;;11.43;79.10
29247;BME280;16272;48.188;9.964;2023-05-07T01:29:18;95695.25;;;11.49;77.99
29247;BME280;16272;48.188;9.964;2023-05-07T01:31:44;95689.13;;;11.14;78.96
29247;BME280;16272;48.188;9.964;2023-05-07T01:34:10;95693.84;;;11.29;79.44
29247;BME280;16272;48.188;9.964;2023-05-07T01:36:38;95683.91;;;11.39;79.23
29247;BME280;16272;48.188;9.964;2023-05-07T01:39:05;95691.63;;;11.50;78.49
29247;BME280;16272;48.188;9.964;2023-05-07T01:41:31;95681.28;;;11.47;78.08
29247;BME280;16272;48.188;9.964;2023-05-07T01:43:57;95691.19;;;11.29;78.74
29247;BME280;16272;48.188;9.964;2023-05-07T01:46:23;95686.47;;;11.57;77.70
29247;BME280;16272;48.188;9.964;2023-05-07T01:48:50;95693.09;;;11.10;79.39
29247;BME280;16272;48.188;9.964;2023-05-07T01:51:15;95688.38;;;11.30;79.56
29247;BME280;16272;48.188;9.964;2023-05-07T01:53:41;95681.91;;;11.41;78.57
29247;BME280;16272;48.188;9.964;2023-05-07T01:56:07;95687.84;;;11.61;75.76
29247;BME280;16272;48.188;9.964;2023-05-07T01:58:32;95679.88;;;11.69;76.71
29247;BME280;16272;48.188;9.964;2023-05-07T02:00:57;95684.69;;;11.66;77.79
29247;BME280;16272;48.188;9.964;2023-05-07T02:03:23;95686.34;;;11.67;75.95
29247;BME280;16272;48.188;9.964;2023-05-07T02:05:48;95685.41;;;11.76;74.91
29247;BME280;16272;48.188;9.964;2023-05-07T02:08:13;95688.47;;;11.55;75.37
29247;BME280;16272;48.188;9.964;2023-05-07T02:10:39;95694.63;;;11.55;77.04
29247;BME280;16272;48.188;9.964;2023-05-07T02:13:04;95689.34;;;11.64;77.06
29247;BME280;16272;48.188;9.964;2023-05-07T02:15:30;95683.06;;;11.73;76.47
29247;BME280;16272;48.188;9.964;2023-05-07T02:18:07;95680.75;;;11.35;76.60
29247;BME280;16272;48.188;9.964;2023-05-07T02:20:33;95676.69;;;11.23;79.33
29247;BME280;16272;48.188;9.964;2023-05-07T02:22:58;95678.13;;;11.44;77.72
29247;BME280;16272;48.188;9.964;2023-05-07T02:25:23;95672.53;;;11.55;76.34
29247;BME280;16272;48.188;9.964;2023-05-07T02:27:49;95673.66;;;11.52;74.60
29247;BME280;16272;48.188;9.964;2023-05-07T02:30:14;95663.56;;;11.56;74.29
29247;BME280;16272;48.188;9.964;2023-05-07T02:32:40;95667.72;;;11.67;74.18
29247;BME280;16272;48.188;9.964;2023-05-07T02:35:05;95669.97;;;11.37;75.50
29247;BME280;16272;48.188;9.964;2023-05-07T02:37:31;95675.66;;;11.16;77.30
29247;BME280;16272;48.188;9.964;2023-05-07T02:39:56;95670.50;;;11.14;78.42
29247;BME280;16272;48.188;9.964;2023-05-07T02:42:21;95674.88;;;11.24;77.03
29247;BME280;16272;48.188;9.964;2023-05-07T02:44:47;95687.38;;;11.05;76.67
29247;BME280;16272;48.188;9.964;2023-05-07T02:47:14;95678.66;;;10.87;79.79
29247;BME280;16272;48.188;9.964;2023-05-07T02:49:40;95680.16;;;10.89;77.71
29247;BME280;16272;48.188;9.964;2023-05-07T02:52:05;95677.38;;;10.46;79.61
29247;BME280;16272;48.188;9.964;2023-05-07T02:54:31;95675.06;;;10.70;78.62
29247;BME280;16272;48.188;9.964;2023-05-07T02:56:56;95674.53;;;10.66;78.73
29247;BME280;16272;48.188;9.964;2023-05-07T02:59:23;95686.03;;;10.48;79.29
29247;BME280;16272;48.188;9.964;2023-05-07T03:01:48;95686.09;;;10.57;79.82
29247;BME280;16272;48.188;9.964;2023-05-07T03:04:13;95684.66;;;10.44;82.30
29247;BME280;16272;48.188;9.964;2023-05-07T03:06:39;95683.81;;;10.44;81.54
29247;BME280;16272;48.188;9.964;2023-05-07T03:09:04;95688.56;;;10.76;80.77
29247;BME280;16272;48.188;9.964;2023-05-07T03:11:30;95686.94;;;10.39;80.42
29247;BME280;16272;48.188;9.964;2023-05-07T03:13:55;95694.66;;;10.51;80.36
29247;BME280;16272;48.188;9.964;2023-05-07T03:16:20;95694.13;;;10.65;80.23
29247;BME280;16272;48.188;9.964;2023-05-07T03:18:46;95692.59;;;10.44;80.44
29247;BME280;16272;48.188;9.964;2023-05-07T03:21:11;95689.09;;;10.62;79.52
29247;BME280;16272;48.188;9.964;2023-05-07T03:23:37;95690.53;;;10.74;79.08
29247;BME280;16272;48.188;9.964;2023-05-07T03:26:02;95693.97;;;10.66;77.78
29247;BME280;16272;48.188;9.964;2023-05-07T03:28:27;95693.13;;;10.66;78.24
29247;BME280;16272;48.188;9.964;2023-05-07T03:30:53;95691.97;;;10.69;77.28
29247;BME280;16272;48.188;9.964;2023-05-07T03:33:18;95695.94;;;10.64;78.46
29247;BME280;16272;48.188;9.964;2023-05-07T03:35:43;95692.66;;;10.71;79.05
29247;BME280;16272;48.188;9.964;2023-05-07T03:38:09;95691.25;;;10.58;77.32
29247;BME280;16272;48.188;9.964;2023-05-07T03:40:34;95693.31;;;10.46;77.79
29247;BME280;16272;48.188;9.964;2023-05-07T03:43:00;95691.31;;;10.30;78.84
29247;BME280;16272;48.188;9.964;2023-05-07T03:45:25;95695.97;;;10.46;79.21
29247;BME280;16272;48.188;9.964;2023-05-07T03:47:51;95697.16;;;10.52;77.08
29247;BME280;16272;48.188;9.964;2023-05-07T03:50:16;95697.06;;;10.62;75.21
29247;BME280;16272;48.188;9.964;2023-05-07T03:52:41;95696.97;;;10.72;74.63
29247;BME280;16272;48.188;9.964;2023-05-07T03:55:07;95701.31;;;10.73;74.27
29247;BME280;16272;48.188;9.964;2023-05-07T03:57:33;95702.19;;;10.81;73.99
29247;BME280;16272;48.188;9.964;2023-05-07T03:59:58;95701.31;;;10.73;73.88
29247;BME280;16272;48.188;9.964;2023-05-07T04:02:23;95706.66;;;10.55;75.52
29247;BME280;16272;48.188;9.964;2023-05-07T04:04:49;95709.81;;;10.04;77.50
29247;BME280;16272;48.188;9.964;2023-05-07T04:07:15;95701.91;;;9.77;77.86
29247;BME280;16272;48.188;9.964;2023-05-07T04:09:40;95703.38;;;9.61;79.75
29247;BME280;16272;48.188;9.964;2023-05-07T04:12:06;95709.25;;;9.83;78.55
29247;BME280;16272;48.188;9.964;2023-05-07T04:14:31;95709.16;;;9.74;78.42
29247;BME280;16272;48.188;9.964;2023-05-07T04:16:58;95702.72;;;9.77;79.22
29247;BME280;16272;48.188;9.964;2023-05-07T04:19:24;95707.38;;;9.93;79.81
29247;BME280;16272;48.188;9.964;2023-05-07T04:21:49;95710.28;;;10.18;78.88
29247;BME280;16272;48.188;9.964;2023-05-07T04:24:14;95706.03;;;10.25;77.96
29247;BME280;16272;48.188;9.964;2023-05-07T04:26:40;95707.50;;;10.37;78.74
29247;BME280;16272;48.188;9.964;2023-05-07T04:29:05;95705.59;;;10.47;78.31
29247;BME280;16272;48.188;9.964;2023-05-07T04:31:30;95712.03;;;10.63;77.79
29247;BME280;16272;48.188;9.964;2023-05-07T04:33:56;95708.38;;;10.64;76.30
29247;BME280;16272;48.188;9.964;2023-05-07T04:36:22;95702.50;;;10.78;77.32
29247;BME280;16272;48.188;9.964;2023-05-07T04:38:47;95708.72;;;10.61;78.36
29247;BME280;16272;48.188;9.964;2023-05-07T04:41:12;95704.75;;;10.65;79.08
29247;BME280;16272;48.188;9.964;2023-05-07T04:43:38;95705.78;;;10.72;78.92
29247;BME280;16272;48.188;9.964;2023-05-07T04:46:03;95705.53;;;10.83;79.11
29247;BME280;16272;48.188;9.964;2023-05-07T04:48:28;95711.47;;;10.77;79.46
29247;BME280;16272;48.188;9.964;2023-05-07T04:50:54;95716.91;;;10.94;79.59
29247;BME280;16272;48.188;9.964;2023-05-07T04:53:20;95706.94;;;11.22;78.16
29247;BME280;16272;48.188;9.964;2023-05-07T04:55:45;95715.94;;;11.03;77.73
29247;BME280;16272;48.188;9.964;2023-05-07T04:58:11;95719.28;;;11.05;77.83
29247;BME280;16272;48.188;9.964;2023-05-07T05:00:37;95720.19;;;10.88;79.40
29247;BME280;16272;48.188;9.964;2023-05-07T05:03:03;95729.34;;;10.93;79.02
29247;BME280;16272;48.188;9.964;2023-05-07T05:05:29;95720.31;;;11.38;78.39
29247;BME280;16272;48.188;9.964;2023-05-07T05:07:54;95717.50;;;11.40;78.74
29247;BME280;16272;48.188;9.964;2023-05-07T05:10:19;95728.69;;;11.52;78.32
29247;BME280;16272;48.188;9.964;2023-05-07T05:12:44;95723.09;;;11.63;78.14
29247;BME280;16272;48.188;9.964;2023-05-07T05:15:12;95728.66;;;11.86;77.21
29247;BME280;16272;48.188;9.964;2023-05-07T05:17:38;95720.97;;;12.26;77.01
29247;BME280;16272;48.188;9.964;2023-05-07T05:20:03;95735.31;;;12.49;76.25
29247;BME280;16272;48.188;9.964;2023-05-07T05:22:29;95739.47;;;12.52;75.60
29247;BME280;16272;48.188;9.964;2023-05-07T05:24:56;95744.00;;;12.60;75.35
29247;BME280;16272;48.188;9.964;2023-05-07T05:27:21;95746.16;;;12.64;75.09
29247;BME280;16272;48.188;9.964;2023-05-07T05:29:46;95744.31;;;12.90;74.70
29247;BME280;16272;48.188;9.964;2023-05-07T05:32:12;95749.78;;;13.21;74.77
29247;BME280;16272;48.188;9.964;2023-05-07T05:34:37;95749.47;;;13.08;76.41
29247;BME280;16272;48.188;9.964;2023-05-07T05:37:02;95751.47;;;13.22;76.38
29247;BME280;16272;48.188;9.964;2023-05-07T05:39:27;95742.09;;;13.42;76.68
29247;BME280;16272;48.188;9.964;2023-05-07T05:41:53;95743.47;;;13.86;74.83
29247;BME280;16272;48.188;9.964;2023-05-07T05:44:18;95750.25;;;13.97;73.65
29247;BME280;16272;48.188;9.964;2023-05-07T05:46:43;95744.69;;;14.07;72.24
29247;BME280;16272;48.188;9.964;2023-05-07T05:49:09;95738.31;;;14.16;72.55
29247;BME280;16272;48.188;9.964;2023-05-07T05:51:34;95736.38;;;13.62;73.71
29247;BME280;16272;48.188;9.964;2023-05-07T05:53:59;95737.19;;;14.10;73.00
29247;BME280;16272;48.188;9.964;2023-05-07T05:56:25;95730.72;;;14.28;71.59
29247;BME280;16272;48.188;9.964;2023-05-07T05:58:50;95724.88;;;14.01;73.33
29247;BME280;16272;48.188;9.964;2023-05-07T06:01:17;95729.72;;;14.29;72.34
29247;BME280;16272;48.188;9.964;2023-05-07T06:03:42;95731.88;;;14.02;74.37
29247;BME280;16272;48.188;9.964;2023-05-07T06:06:08;95728.31;;;13.78;75.41
29247;BME280;16272;48.188;9.964;2023-05-07T06:08:33;95731.50;;;14.13;73.28
29247;BME280;16272;48.188;9.964;2023-05-07T06:10:58;95727.25;;;14.74;70.42
29247;BME280;16272;48.188;9.964;2023-05-07T06:13:25;95735.94;;;14.44;71.96
29247;BME280;16272;48.188;9.964;2023-05-07T06:15:50;95734.31;;;14.43;73.55
29247;BME280;16272;48.188;9.964;2023-05-07T06:18:15;95730.81;;;14.89;72.35
29247;BME280;16272;48.188;9.964;2023-05-07T06:20:41;95734.22;;;14.60;73.56
29247;BME280;16272;48.188;9.964;2023-05-07T06:23:06;95726.16;;;15.06;72.34
29247;BME280;16272;48.188;9.964;2023-05-07T06:25:31;95731.69;;;15.04;73.52
29247;BME280;16272;48.188;9.964;2023-05-07T06:27:57;95726.38;;;15.34;71.99
29247;BME280;16272;48.188;9.964;2023-05-07T06:30:22;95724.66;;;15.41;71.72
29247;BME280;16272;48.188;9.964;2023-05-07T06:32:47;95730.84;;;15.87;69.06
29247;BME280;16272;48.188;9.964;2023-05-07T06:35:12;95727.50;;;15.99;68.95
29247;BME280;16272;48.188;9.964;2023-05-07T06:37:38;95720.66;;;15.97;69.15
29247;BME280;16272;48.188;9.964;2023-05-07T06:40:05;95726.47;;;15.71;69.69
29247;BME280;16272;48.188;9.964;2023-05-07T06:42:31;95736.22;;;16.23;69.83
29247;BME280;16272;48.188;9.964;2023-05-07T06:44:56;95727.75;;;16.05;69.74
29247;BME280;16272;48.188;9.964;2023-05-07T06:47:21;95723.72;;;16.09;69.91
29247;BME280;16272;48.188;9.964;2023-05-07T06:49:47;95725.25;;;16.76;68.83
29247;BME280;16272;48.188;9.964;2023-05-07T06:52:12;95729.00;;;16.82;68.61
29247;BME280;16272;48.188;9.964;2023-05-07T06:54:37;95732.28;;;16.99;66.82
29247;BME280;16272;48.188;9.964;2023-05-07T06:57:03;95731.69;;;17.03;66.13
29247;BME280;16272;48.188;9.964;2023-05-07T06:59:28;95731.75;;;16.88;68.06
29247;BME280;16272;48.188;9.964;2023-05-07T07:01:53;95728.56;;;16.78;69.56
29247;BME280;16272;48.188;9.964;2023-05-07T07:04:18;95725.59;;;16.88;67.74
29247;BME280;16272;48.188;9.964;2023-05-07T07:06:45;95729.09;;;17.38;67.06
29247;BME280;16272;48.188;9.964;2023-05-07T07:09:10;95731.94;;;17.08;68.46
29247;BME280;16272;48.188;9.964;2023-05-07T07:11:36;95733.94;;;17.28;67.13
29247;BME280;16272;48.188;9.964;2023-05-07T07:14:01;95730.69;;;17.33;66.03
29247;BME280;16272;48.188;9.964;2023-05-07T07:16:26;95734.63;;;17.65;65.46
29247;BME280;16272;48.188;9.964;2023-05-07T07:18:52;95725.72;;;17.99;64.41
29247;BME280;16272;48.188;9.964;2023-05-07T07:21:17;95729.16;;;17.87;65.81
29247;BME280;16272;48.188;9.964;2023-05-07T07:23:42;95727.22;;;18.02;65.68
29247;BME280;16272;48.188;9.964;2023-05-07T07:26:08;95715.09;;;18.33;64.26
29247;BME280;16272;48.188;9.964;2023-05-07T07:28:33;95726.44;;;18.22;65.85
29247;BME280;16272;48.188;9.964;2023-05-07T07:30:58;95725.00;;;18.19;69.66
29247;BME280;16272;48.188;9.964;2023-05-07T07:33:23;95725.19;;;18.86;66.65
29247;BME280;16272;48.188;9.964;2023-05-07T07:35:49;95722.50;;;18.86;64.24
29247;BME280;16272;48.188;9.964;2023-05-07T07:38:14;95713.41;;;19.14;63.79
29247;BME280;16272;48.188;9.964;2023-05-07T07:40:40;95716.50;;;19.31;62.47
29247;BME280;16272;48.188;9.964;2023-05-07T07:43:05;95717.50;;;19.56;62.41
29247;BME280;16272;48.188;9.964;2023-05-07T07:45:31;95714.16;;;19.81;61.01
29247;BME280;16272;48.188;9.964;2023-05-07T07:47:56;95714.75;;;19.90;62.66
29247;BME280;16272;48.188;9.964;2023-05-07T07:50:21;95716.69;;;20.21;61.49
29247;BME280;16272;48.188;9.964;2023-05-07T07:52:48;95717.22;;;19.91;60.33
29247;BME280;16272;48.188;9.964;2023-05-07T07:55:13;95722.56;;;20.05;60.61
29247;BME280;16272;48.188;9.964;2023-05-07T07:57:38;95722.78;;;20.87;61.75
29247;BME280;16272;48.188;9.964;2023-05-07T08:00:04;95719.22;;;20.93;58.06
29247;BME280;16272;48.188;9.964;2023-05-07T08:02:31;95716.91;;;21.47;58.79
29247;BME280;16272;48.188;9.964;2023-05-07T08:04:56;95714.00;;;21.23;57.56
29247;BME280;16272;48.188;9.964;2023-05-07T08:07:21;95714.53;;;21.14;57.84
29247;BME280;16272;48.188;9.964;2023-05-07T08:09:48;95712.38;;;21.22;55.43
29247;BME280;16272;48.188;9.964;2023-05-07T08:12:13;95726.28;;;20.94;54.41
29247;BME280;16272;48.188;9.964;2023-05-07T08:14:38;95718.78;;;21.72;54.87
29247;BME280;16272;48.188;9.964;2023-05-07T08:17:04;95723.28;;;21.34;55.97
29247;BME280;16272;48.188;9.964;2023-05-07T08:19:29;95724.69;;;20.86;58.66
29247;BME280;16272;48.188;9.964;2023-05-07T08:21:55;95729.06;;;21.13;60.26
29247;BME280;16272;48.188;9.964;2023-05-07T08:24:20;95728.19;;;20.87;61.66
29247;BME280;16272;48.188;9.964;2023-05-07T08:26:46;95720.41;;;20.72;61.09
29247;BME280;16272;48.188;9.964;2023-05-07T08:29:12;95721.94;;;21.43;59.19
29247;BME280;16272;48.188;9.964;2023-05-07T08:31:37;95724.44;;;22.07;56.76
29247;BME280;16272;48.188;9.964;2023-05-07T08:34:04;95713.91;;;22.17;55.55
29247;BME280;16272;48.188;9.964;2023-05-07T08:36:30;95721.94;;;21.43;59.30
29247;BME280;16272;48.188;9.964;2023-05-07T08:38:56;95716.28;;;21.52;58.11
29247;BME280;16272;48.188;9.964;2023-05-07T08:41:21;95719.50;;;22.04;57.08
29247;BME280;16272;48.188;9.964;2023-05-07T08:43:48;95718.59;;;22.29;54.66
29247;BME280;16272;48.188;9.964;2023-05-07T08:46:20;95716.31;;;22.26;59.39
29247;BME280;16272;48.188;9.964;2023-05-07T08:48:50;95714.03;;;22.60;56.33
29247;BME280;16272;48.188;9.964;2023-05-07T08:51:18;95720.34;;;22.84;57.28
29247;BME280;16272;48.188;9.964;2023-05-07T08:53:44;95709.28;;;23.16;59.44
29247;BME280;16272;48.188;9.964;2023-05-07T08:56:10;95722.06;;;23.08;54.97
29247;BME280;16272;48.188;9.964;2023-05-07T08:58:36;95729.88;;;22.56;53.72
29247;BME280;16272;48.188;9.964;2023-05-07T09:01:07;95724.59;;;22.31;52.36
29247;BME280;16272;48.188;9.964;2023-05-07T09:03:32;95730.00;;;22.31;53.43
29247;BME280;16272;48.188;9.964;2023-05-07T09:05:58;95730.03;;;22.61;52.17
29247;BME280;16272;48.188;9.964;2023-05-07T09:08:27;95719.50;;;22.71;52.92
29247;BME280;16272;48.188;9.964;2023-05-07T09:10:53;95722.69;;;22.80;52.69
29247;BME280;16272;48.188;9.964;2023-05-07T09:13:19;95715.81;;;22.66;55.36
29247;BME280;16272;48.188;9.964;2023-05-07T09:15:44;95720.59;;;22.52;54.43
29247;BME280;16272;48.188;9.964;2023-05-07T09:18:10;95714.94;;;22.95;51.96
29247;BME280;16272;48.188;9.964;2023-05-07T09:20:41;95724.25;;;22.57;54.36
29247;BME280;16272;48.188;9.964;2023-05-07T09:23:07;95717.91;;;22.64;52.65
29247;BME280;16272;48.188;9.964;2023-05-07T09:25:34;95726.44;;;22.12;53.11
29247;BME280;16272;48.188;9.964;2023-05-07T09:28:04;95731.94;;;21.87;54.67
29247;BME280;16272;48.188;9.964;2023-05-07T09:30:33;95727.41;;;21.62;53.21
29247;BME280;16272;48.188;9.964;2023-05-07T09:33:01;95724.59;;;22.31;56.55
29247;BME280;16272;48.188;9.964;2023-05-07T09:35:27;95727.41;;;22.54;55.37
29247;BME280;16272;48.188;9.964;2023-05-07T09:37:53;95726.03;;;23.60;53.63
29247;BME280;16272;48.188;9.964;2023-05-07T09:40:26;95716.94;;;23.54;50.10
29247;BME280;16272;48.188;9.964;2023-05-07T09:42:52;95720.13;;;23.75;52.91
29247;BME280;16272;48.188;9.964;2023-05-07T09:45:25;95720.59;;;23.36;55.29
29247;BME280;16272;48.188;9.964;2023-05-07T09:47:54;95718.38;;;23.68;51.97
29247;BME280;16272;48.188;9.964;2023-05-07T09:50:22;95711.94;;;24.91;51.03
29247;BME280;16272;48.188;9.964;2023-05-07T09:52:52;95719.09;;;23.99;57.47
29247;BME280;16272;48.188;9.964;2023-05-07T09:55:17;95710.22;;;24.45;52.84
29247;BME280;16272;48.188;9.964;2023-05-07T09:57:44;95712.75;;;24.34;49.68
29247;BME280;16272;48.188;9.964;2023-05-07T10:00:10;95711.16;;;24.10;52.96
29247;BME280;16272;48.188;9.964;2023-05-07T10:02:36;95712.25;;;25.75;48.96
29247;BME280;16272;48.188;9.964;2023-05-07T10:05:02;95711.22;;;26.20;50.20
29247;BME280;16272;48.188;9.964;2023-05-07T10:07:28;95710.53;;;25.35;49.52
29247;BME280;16272;48.188;9.964;2023-05-07T10:09:55;95704.69;;;24.11;51.95
29247;BME280;16272;48.188;9.964;2023-05-07T10:12:23;95709.25;;;24.51;50.03
29247;BME280;16272;48.188;9.964;2023-05-07T10:14:50;95719.44;;;23.44;50.28
29247;BME280;16272;48.188;9.964;2023-05-07T10:17:16;95705.16;;;25.57;48.52
29247;BME280;16272;48.188;9.964;2023-05-07T10:19:46;95703.47;;;25.90;42.83
29247;BME280;16272;48.188;9.964;2023-05-07T10:22:13;95704.44;;;26.45;45.34
29247;BME280;16272;48.188;9.964;2023-05-07T10:24:38;95694.59;;;26.38;44.37
29247;BME280;16272;48.188;9.964;2023-05-07T10:27:12;95705.09;;;25.91;44.08
29247;BME280;16272;48.188;9.964;2023-05-07T10:32:39;95694.06;;;24.79;48.41
29247;BME280;16272;48.188;9.964;2023-05-07T10:35:10;95697.25;;;24.75;44.40
29247;BME280;16272;48.188;9.964;2023-05-07T10:37:39;95693.81;;;25.60;48.39
29247;BME280;16272;48.188;9.964;2023-05-07T10:40:06;95688.19;;;25.16;46.40
29247;BME280;16272;48.188;9.964;2023-05-07T10:42:32;95690.31;;;24.97;49.42
29247;BME280;16272;48.188;9.964;2023-05-07T10:44:57;95684.47;;;24.88;42.89
29247;BME280;16272;48.188;9.964;2023-05-07T10:47:23;95683.94;;;25.76;46.22
29247;BME280;16272;48.188;9.964;2023-05-07T10:52:18;95682.44;;;25.85;45.29
29247;BME280;16272;48.188;9.964;2023-05-07T10:54:44;95678.00;;;24.48;47.90
29247;BME280;16272;48.188;9.964;2023-05-07T10:59:57;95670.72;;;25.28;46.61
29247;BME280;16272;48.188;9.964;2023-05-07T11:02:22;95673.13;;;24.62;46.53
29247;BME280;16272;48.188;9.964;2023-05-07T11:05:22;95683.75;;;24.23;46.41
29247;BME280;16272;48.188;9.964;2023-05-07T11:07:59;95679.31;;;24.46;46.93
29247;BME280;16272;48.188;9.964;2023-05-07T11:10:50;95687.72;;;23.56;48.39
29247;BME280;16272;48.188;9.964;2023-05-07T11:13:17;95675.22;;;23.91;49.60
29247;BME280;16272;48.188;9.964;2023-05-07T11:15:47;95677.34;;;23.29;49.47
29247;BME280;16272;48.188;9.964;2023-05-07T11:18:14;95668.63;;;23.51;50.95
29247;BME280;16272;48.188;9.964;2023-05-07T11:26:04;95669.38;;;24.22;48.62
29247;BME280;16272;48.188;9.964;2023-05-07T11:28:30;95661.28;;;24.68;47.83
29247;BME280;16272;48.188;9.964;2023-05-07T11:30:57;95660.41;;;24.80;47.48
29247;BME280;16272;48.188;9.964;2023-05-07T11:33:23;95663.22;;;25.53;45.70
29247;BME280;16272;48.188;9.964;2023-05-07T11:35:51;95663.16;;;25.47;47.27
29247;BME280;16272;48.188;9.964;2023-05-07T11:38:18;95659.00;;;24.94;45.67
29247;BME280;16272;48.188;9.964;2023-05-07T11:40:55;95660.31;;;25.76;44.52
29247;BME280;16272;48.188;9.964;2023-05-07T11:43:21;95654.63;;;25.78;47.52
29247;BME280;16272;48.188;9.964;2023-05-07T11:45:47;95656.56;;;25.09;45.64
29247;BME280;16272;48.188;9.964;2023-05-07T11:48:13;95659.53;;;25.98;44.58
29247;BME280;16272;48.188;9.964;2023-05-07T11:53:27;95659.72;;;25.35;46.26
29247;BME280;16272;48.188;9.964;2023-05-07T11:55:55;95656.22;;;24.31;46.20
29247;BME280;16272;48.188;9.964;2023-05-07T11:58:22;95651.88;;;24.59;46.09
29247;BME280;16272;48.188;9.964;2023-05-07T12:00:51;95651.19;;;24.23;44.47
29247;BME280;16272;48.188;9.964;2023-05-07T12:03:16;95644.31;;;24.61;46.90
29247;BME280;16272;48.188;9.964;2023-05-07T12:05:46;95640.28;;;25.43;45.08
29247;BME280;16272;48.188;9.964;2023-05-07T12:08:15;95640.19;;;25.77;45.95
29247;BME280;16272;48.188;9.964;2023-05-07T12:10:42;95654.88;;;25.76;44.95
29247;BME280;16272;48.188;9.964;2023-05-07T12:13:21;95655.66;;;23.77;46.35
29247;BME280;16272;48.188;9.964;2023-05-07T12:15:54;95648.00;;;24.26;46.92
29247;BME280;16272;48.188;9.964;2023-05-07T12:18:21;95649.91;;;25.34;44.29
29247;BME280;16272;48.188;9.964;2023-05-07T12:20:47;95651.06;;;24.58;44.69
29247;BME280;16272;48.188;9.964;2023-05-07T12:23:13;95657.38;;;24.07;46.19
29247;BME280;16272;48.188;9.964;2023-05-07T12:25:40;95651.75;;;24.25;44.53
29247;BME280;16272;48.188;9.964;2023-05-07T12:28:13;95650.47;;;25.02;43.36
29247;BME280;16272;48.188;9.964;2023-05-07T12:30:39;95642.81;;;25.16;45.98
29247;BME280;16272;48.188;9.964;2023-05-07T12:33:04;95647.22;;;24.71;47.94
29247;BME280;16272;48.188;9.964;2023-05-07T12:35:32;95640.09;;;24.99;44.29
29247;BME280;16272;48.188;9.964;2023-05-07T12:38:01;95640.69;;;24.55;45.27
29247;BME280;16272;48.188;9.964;2023-05-07T12:40:43;95637.38;;;24.99;45.75
29247;BME280;16272;48.188;9.964;2023-05-07T12:43:38;95627.00;;;25.47;43.42
29247;BME280;16272;48.188;9.964;2023-05-07T12:46:05;95631.13;;;25.72;42.33
29247;BME280;16272;48.188;9.964;2023-05-07T12:48:31;95634.63;;;24.65;47.00
29247;BME280;16272;48.188;9.964;2023-05-07T12:50:59;95630.13;;;24.88;43.20
29247;BME280;16272;48.188;9.964;2023-05-07T12:53:26;95626.81;;;25.76;45.57
29247;BME280;16272;48.188;9.964;2023-05-07T12:55:54;95631.69;;;24.84;45.36
29247;BME280;16272;48.188;9.964;2023-05-07T12:58:31;95626.81;;;25.20;43.94
29247;BME280;16272;48.188;9.964;2023-05-07T13:00:59;95629.91;;;24.03;44.77
29247;BME280;16272;48.188;9.964;2023-05-07T13:03:26;95629.47;;;25.14;47.74
29247;BME280;16272;48.188;9.964;2023-05-07T13:05:52;95622.47;;;25.02;45.22
29247;BME280;16272;48.188;9.964;2023-05-07T13:10:50;95626.44;;;25.45;43.21
29247;BME280;16272;48.188;9.964;2023-05-07T13:13:15;95627.91;;;25.36;44.15
29247;BME280;16272;48.188;9.964;2023-05-07T13:15:40;95629.72;;;24.50;43.41